createdAt,value
2023-03-20T00:01:38.295Z,75.58
2023-03-20T00:04:04.892Z,77.26
2023-03-20T00:06:32.341Z,78.58
2023-03-20T00:08:58.796Z,76.18
2023-03-20T00:11:34.775Z,75.94
2023-03-20T00:14:02.991Z,77.43
2023-03-20T00:16:40.335Z,77.14
2023-03-20T00:19:08.606Z,78.08
2023-03-20T00:21:35.176Z,77.75
2023-03-20T00:24:01.904Z,79.07
2023-03-20T00:26:33.562Z,78.49
2023-03-20T00:29:01.196Z,77.13
2023-03-20T00:31:30.820Z,77.89
2023-03-20T00:33:58.610Z,76.97
2023-03-20T00:36:25.457Z,78.14
2023-03-20T00:38:52.177Z,77.38
2023-03-20T00:41:21.865Z,74.74
2023-03-20T00:43:49.676Z,76.12
2023-03-20T00:46:16.387Z,76.82
2023-03-20T00:48:43.604Z,76.93
2023-03-20T00:51:10.032Z,77.09
2023-03-20T00:53:37.100Z,78.75
2023-03-20T00:56:03.849Z,78.72
2023-03-20T00:58:30.342Z,79.60
2023-03-20T01:00:57.151Z,79.46
2023-03-20T01:03:26.066Z,78.13
2023-03-20T01:05:52.700Z,78.89
2023-03-20T01:08:23.800Z,80.03
2023-03-20T01:10:51.456Z,79.32
2023-03-20T01:13:21.362Z,78.71
2023-03-20T01:15:48.280Z,78.77
2023-03-20T01:18:15.963Z,79.10
2023-03-20T01:20:42.903Z,79.10
2023-03-20T01:23:10.017Z,79.74
2023-03-20T01:25:36.942Z,80.51
2023-03-20T01:28:07.501Z,82.97
2023-03-20T01:30:34.269Z,81.99
2023-03-20T01:33:01.640Z,80.69
2023-03-20T01:35:29.649Z,79.92
2023-03-20T01:38:00.807Z,79.99
2023-03-20T01:40:32.105Z,78.38
2023-03-20T01:42:59.019Z,78.26
2023-03-20T01:45:30.216Z,79.23
2023-03-20T01:47:58.918Z,78.02
2023-03-20T01:50:27.132Z,78.86
2023-03-20T01:53:04.615Z,78.27
2023-03-20T01:55:32.668Z,78.55
2023-03-20T01:58:05.209Z,78.95
2023-03-20T02:00:33.125Z,78.23
2023-03-20T02:03:00.415Z,79.81
2023-03-20T02:06:01.892Z,79.82
2023-03-20T02:08:52.895Z,81.09
2023-03-20T02:11:22.501Z,81.40
2023-03-20T02:13:51.007Z,80.70
2023-03-20T02:16:18.167Z,80.77
2023-03-20T02:18:58.379Z,81.11
2023-03-20T02:21:31.160Z,80.66
2023-03-20T02:24:04.717Z,80.96
2023-03-20T02:26:48.038Z,81.52
2023-03-20T02:29:14.617Z,81.81
2023-03-20T02:31:41.162Z,81.96
2023-03-20T02:34:26.602Z,83.66
2023-03-20T02:36:53.187Z,83.82
2023-03-20T02:39:34.998Z,82.66
2023-03-20T02:42:14.255Z,81.74
2023-03-20T02:45:04.589Z,82.94
2023-03-20T02:47:34.871Z,83.90
2023-03-20T02:50:18.141Z,84.10
2023-03-20T02:52:47.756Z,84.54
2023-03-20T02:55:14.509Z,84.71
2023-03-20T02:57:56.443Z,84.90
2023-03-20T03:00:38.464Z,84.76
2023-03-20T03:03:06.581Z,83.86
2023-03-20T03:05:49.769Z,84.04
2023-03-20T03:08:18.529Z,83.16
2023-03-20T03:10:46.976Z,83.13
2023-03-20T03:13:15.383Z,81.60
2023-03-20T03:15:45.306Z,81.31
2023-03-20T03:18:14.413Z,81.54
2023-03-20T03:20:43.124Z,81.54
2023-03-20T03:23:14.873Z,82.91
2023-03-20T03:25:41.997Z,82.37
2023-03-20T03:28:21.602Z,82.60
2023-03-20T03:30:50.117Z,83.27
2023-03-20T03:33:21.340Z,82.78
2023-03-20T03:35:49.859Z,82.57
2023-03-20T03:38:29.046Z,76.58
2023-03-20T03:41:23.867Z,78.58
2023-03-20T03:43:53.967Z,79.95
2023-03-20T03:46:26.820Z,80.96
2023-03-20T03:48:56.178Z,82.42
2023-03-20T03:51:25.083Z,81.83
2023-03-20T03:54:04.081Z,83.18
2023-03-20T03:56:31.677Z,83.16
2023-03-20T03:59:04.297Z,82.90
2023-03-20T04:01:35.456Z,81.30
2023-03-20T04:04:05.046Z,81.49
2023-03-20T04:06:32.227Z,82.37
2023-03-20T04:08:58.859Z,82.15
2023-03-20T04:11:26.198Z,81.85
2023-03-20T04:13:52.882Z,82.32
2023-03-20T04:16:22.960Z,82.85
2023-03-20T04:18:50.530Z,83.77
2023-03-20T04:21:17.989Z,83.46
2023-03-20T04:23:44.515Z,80.95
2023-03-20T04:26:11.309Z,80.93
2023-03-20T04:28:38.509Z,81.48
2023-03-20T04:31:25.211Z,80.64
2023-03-20T04:34:10.768Z,81.67
2023-03-20T04:36:52.459Z,81.12
2023-03-20T04:39:20.491Z,81.87
2023-03-20T04:41:47.305Z,82.63
2023-03-20T04:44:13.933Z,83.09
2023-03-20T04:46:43.183Z,82.16
2023-03-20T04:49:14.986Z,82.06
2023-03-20T04:51:41.954Z,81.43
2023-03-20T04:54:10.834Z,81.39
2023-03-20T04:56:37.375Z,80.33
2023-03-20T04:59:14.072Z,79.90
2023-03-20T05:01:40.813Z,80.81
2023-03-20T05:04:08.062Z,79.71
2023-03-20T05:06:35.187Z,80.50
2023-03-20T05:09:02.146Z,80.67
2023-03-20T05:11:30.622Z,81.09
2023-03-20T05:13:59.816Z,80.73
2023-03-20T05:16:37.782Z,80.54
2023-03-20T05:19:18.896Z,82.19
2023-03-20T05:21:48.328Z,82.50
2023-03-20T05:24:35.244Z,81.28
2023-03-20T05:27:27.880Z,81.75
2023-03-20T05:30:23.356Z,81.87
2023-03-20T05:33:08.602Z,82.46
2023-03-20T05:35:52.544Z,81.77
2023-03-20T05:38:32.819Z,81.09
2023-03-20T05:41:22.718Z,80.83
2023-03-20T05:44:11.145Z,80.76
2023-03-20T05:46:56.600Z,79.93
2023-03-20T05:49:41.841Z,80.92
2023-03-20T05:52:26.788Z,81.70
2023-03-20T05:55:28.392Z,81.96
2023-03-20T05:58:12.154Z,80.86
2023-03-20T06:00:58.004Z,81.07
2023-03-20T06:03:44.770Z,80.31
2023-03-20T06:06:20.084Z,80.25
2023-03-20T06:08:49.203Z,81.33
2023-03-20T06:11:16.400Z,80.59
2023-03-20T06:13:43.313Z,79.98
2023-03-20T06:16:11.051Z,79.49
2023-03-20T06:18:39.172Z,80.02
2023-03-20T06:21:07.726Z,79.73
2023-03-20T06:23:34.306Z,79.68
2023-03-20T06:26:02.161Z,78.86
2023-03-20T06:28:32.391Z,76.82
2023-03-20T06:31:04.698Z,76.56
2023-03-20T06:33:31.380Z,75.17
2023-03-20T06:35:59.713Z,73.47
2023-03-20T06:38:28.826Z,73.08
2023-03-20T06:40:55.544Z,72.74
2023-03-20T06:43:22.809Z,73.04
2023-03-20T06:45:52.297Z,72.03
2023-03-20T06:48:24.770Z,68.73
2023-03-20T06:50:52.831Z,65.41
2023-03-20T06:53:22.340Z,63.72
2023-03-20T06:56:01.725Z,67.34
2023-03-20T06:58:28.814Z,66.30
2023-03-20T07:00:55.355Z,67.21
2023-03-20T07:03:22.372Z,66.62
2023-03-20T07:05:50.943Z,65.66
2023-03-20T07:08:18.517Z,66.46
2023-03-20T07:10:45.040Z,66.95
2023-03-20T07:13:12.882Z,65.70
2023-03-20T07:15:50.648Z,65.27
2023-03-20T07:18:25.546Z,65.43
2023-03-20T07:20:52.921Z,64.25
2023-03-20T07:23:20.048Z,64.20
2023-03-20T07:25:47.445Z,64.08
2023-03-20T07:28:17.003Z,65.06
2023-03-20T07:30:49.823Z,64.21
2023-03-20T07:33:18.098Z,65.17
2023-03-20T07:35:45.309Z,65.25
2023-03-20T07:38:12.030Z,64.09
2023-03-20T07:40:49.082Z,63.80
2023-03-20T07:43:16.705Z,64.07
2023-03-20T07:46:02.230Z,65.59
2023-03-20T07:48:28.749Z,64.79
2023-03-20T07:50:55.433Z,65.83
2023-03-20T07:53:22.058Z,64.42
2023-03-20T07:55:48.897Z,64.96
2023-03-20T07:58:15.598Z,63.69
2023-03-20T08:00:42.225Z,64.77
2023-03-20T08:03:09.450Z,64.22
2023-03-20T08:05:36.346Z,63.71
2023-03-20T08:08:03.275Z,64.45
2023-03-20T08:10:29.772Z,62.13
2023-03-20T08:12:56.333Z,60.78
2023-03-20T08:15:22.821Z,58.74
2023-03-20T08:17:49.325Z,58.65
2023-03-20T08:20:16.376Z,55.49
2023-03-20T08:22:44.259Z,57.54
2023-03-20T08:25:11.005Z,57.82
2023-03-20T08:27:38.510Z,54.48
2023-03-20T08:30:05.225Z,52.90
2023-03-20T08:32:31.984Z,54.17
2023-03-20T08:34:58.488Z,53.55
2023-03-20T08:37:24.980Z,53.04
2023-03-20T08:39:51.521Z,52.89
2023-03-20T08:42:17.995Z,50.40
2023-03-20T08:44:45.160Z,51.28
2023-03-20T08:47:12.225Z,51.91
2023-03-20T08:49:38.724Z,51.45
2023-03-20T08:52:05.828Z,50.09
2023-03-20T08:54:33.779Z,50.84
2023-03-20T08:57:00.266Z,49.74
2023-03-20T08:59:26.754Z,50.32
2023-03-20T09:01:53.247Z,48.95
2023-03-20T09:04:19.746Z,49.86
2023-03-20T09:06:46.311Z,47.98
2023-03-20T09:09:15.791Z,48.86
2023-03-20T09:11:42.359Z,49.43
2023-03-20T09:14:08.974Z,48.95
2023-03-20T09:16:35.511Z,48.18
2023-03-20T09:19:02.072Z,46.58
2023-03-20T09:21:28.550Z,48.27
2023-03-20T09:23:54.981Z,47.96
2023-03-20T09:26:21.537Z,46.76
2023-03-20T09:28:48.024Z,46.50
2023-03-20T09:31:14.594Z,46.25
2023-03-20T09:33:41.248Z,47.16
2023-03-20T09:36:11.504Z,46.18
2023-03-20T09:38:38.155Z,45.20
2023-03-20T09:41:05.114Z,44.33
2023-03-20T09:43:50.520Z,44.95
2023-03-20T09:46:31.720Z,42.25
2023-03-20T09:48:58.174Z,43.51
2023-03-20T09:51:31.898Z,43.04
2023-03-20T09:54:07.782Z,42.03
2023-03-20T09:56:34.236Z,40.86
2023-03-20T09:59:02.212Z,39.65
2023-03-20T10:01:51.996Z,38.94
2023-03-20T10:04:19.128Z,43.03
2023-03-20T10:06:46.641Z,43.57
2023-03-20T10:09:24.776Z,42.43
2023-03-20T10:11:57.386Z,43.05
2023-03-20T10:14:37.395Z,43.32
2023-03-20T10:17:19.015Z,43.44
2023-03-20T10:19:45.550Z,41.16
2023-03-20T10:22:11.983Z,42.03
2023-03-20T10:24:49.175Z,42.37
2023-03-20T10:27:28.229Z,42.14
2023-03-20T10:30:03.579Z,41.92
2023-03-20T10:32:36.257Z,42.42
2023-03-20T10:35:08.944Z,42.02
2023-03-20T10:37:53.054Z,42.74
2023-03-20T10:40:26.811Z,44.33
2023-03-20T10:42:55.050Z,44.66
2023-03-20T10:45:28.290Z,44.17
2023-03-20T10:47:56.061Z,45.53
2023-03-20T10:50:32.023Z,44.32
2023-03-20T10:53:00.190Z,45.00
2023-03-20T10:55:30.848Z,42.79
2023-03-20T10:58:14.192Z,42.17
2023-03-20T11:00:40.895Z,42.21
2023-03-20T11:03:08.217Z,42.58
2023-03-20T11:05:36.959Z,43.41
2023-03-20T11:08:07.757Z,43.75
2023-03-20T11:10:36.296Z,44.45
2023-03-20T11:13:16.933Z,44.64
2023-03-20T11:15:43.463Z,45.48
2023-03-20T11:18:14.090Z,45.13
2023-03-20T11:20:50.510Z,45.86
2023-03-20T11:23:19.529Z,46.64
2023-03-20T11:25:49.127Z,46.75
2023-03-20T11:28:26.367Z,46.17
2023-03-20T11:31:04.637Z,47.62
2023-03-20T11:33:32.492Z,47.47
2023-03-20T11:35:59.378Z,47.93
2023-03-20T11:38:25.996Z,48.09
2023-03-20T11:40:53.695Z,48.41
2023-03-20T11:43:21.892Z,48.13
2023-03-20T11:45:50.919Z,48.32
2023-03-20T11:48:24.999Z,48.00
2023-03-20T11:50:54.437Z,48.60
2023-03-20T11:53:23.260Z,48.18
2023-03-20T11:56:10.950Z,47.59
2023-03-20T11:58:40.130Z,47.82
2023-03-20T12:01:09.069Z,47.52
2023-03-20T12:03:45.121Z,47.15
2023-03-20T12:06:35.014Z,47.71
2023-03-20T12:09:04.496Z,47.67
2023-03-20T12:11:52.558Z,48.12
2023-03-20T12:14:23.831Z,48.78
2023-03-20T12:16:53.175Z,48.41
2023-03-20T12:19:25.921Z,48.44
2023-03-20T12:21:59.580Z,49.15
2023-03-20T12:24:44.510Z,48.85
2023-03-20T12:27:21.502Z,48.82
2023-03-20T12:29:55.859Z,47.31
2023-03-20T12:32:22.404Z,47.44
2023-03-20T12:35:02.446Z,47.98
2023-03-20T12:37:28.966Z,46.97
2023-03-20T12:39:57.095Z,47.43
2023-03-20T12:42:42.772Z,47.54
2023-03-20T12:45:16.031Z,47.62
2023-03-20T12:47:42.724Z,47.54
2023-03-20T12:50:18.439Z,46.71
2023-03-20T12:52:48.099Z,47.37
2023-03-20T12:55:26.166Z,47.93
2023-03-20T12:58:06.245Z,47.18
2023-03-20T13:00:36.039Z,46.02
2023-03-20T13:03:22.963Z,47.58
2023-03-20T13:05:52.221Z,45.99
2023-03-20T13:08:32.489Z,46.27
2023-03-20T13:11:15.967Z,45.75
2023-03-20T13:13:52.071Z,44.83
2023-03-20T13:16:31.622Z,45.01
2023-03-20T13:19:13.644Z,46.79
2023-03-20T13:21:40.236Z,45.21
2023-03-20T13:24:06.848Z,43.73
2023-03-20T13:26:38.896Z,44.50
2023-03-20T13:29:41.011Z,43.58
2023-03-20T13:32:10.441Z,43.51
2023-03-20T13:35:06.445Z,44.21
2023-03-20T13:37:36.073Z,43.82
2023-03-20T13:40:06.161Z,43.89
2023-03-20T13:42:36.948Z,43.86
2023-03-20T13:45:07.129Z,43.68
2023-03-20T13:47:36.209Z,43.06
2023-03-20T13:50:02.629Z,42.61
2023-03-20T13:52:32.166Z,42.55
2023-03-20T13:55:17.140Z,42.39
2023-03-20T13:57:50.233Z,42.08
2023-03-20T14:00:22.979Z,42.66
2023-03-20T14:02:52.683Z,42.21
2023-03-20T14:05:22.981Z,41.15
2023-03-20T14:07:55.825Z,40.83
2023-03-20T14:10:22.418Z,40.50
2023-03-20T14:12:50.249Z,40.84
2023-03-20T14:15:19.648Z,40.08
2023-03-20T14:17:50.975Z,41.20
2023-03-20T14:20:27.857Z,40.67
2023-03-20T14:22:56.934Z,39.99
2023-03-20T14:25:24.630Z,41.85
2023-03-20T14:28:06.699Z,41.05
2023-03-20T14:30:36.558Z,40.76
2023-03-20T14:33:15.976Z,41.34
2023-03-20T14:35:45.271Z,41.49
2023-03-20T14:38:20.429Z,41.09
2023-03-20T14:40:52.366Z,42.24
2023-03-20T14:43:37.597Z,41.07
2023-03-20T14:46:09.074Z,41.23
2023-03-20T14:48:41.685Z,40.70
2023-03-20T14:51:08.201Z,41.59
2023-03-20T14:53:34.936Z,41.63
2023-03-20T14:56:02.098Z,41.42
2023-03-20T14:58:41.469Z,41.93
2023-03-20T15:01:09.603Z,42.92
2023-03-20T15:03:39.519Z,43.75
2023-03-20T15:06:07.596Z,42.86
2023-03-20T15:08:36.074Z,43.12
2023-03-20T15:11:06.901Z,43.54
2023-03-20T15:13:34.196Z,42.36
2023-03-20T15:16:11.449Z,41.01
2023-03-20T15:18:43.088Z,39.68
2023-03-20T15:21:32.694Z,39.14
2023-03-20T15:23:59.262Z,39.36
2023-03-20T15:26:26.681Z,39.18
2023-03-20T15:28:59.680Z,40.58
2023-03-20T15:31:32.679Z,40.86
2023-03-20T15:34:00.666Z,41.12
2023-03-20T15:36:28.697Z,41.95
2023-03-20T15:39:03.986Z,42.32
2023-03-20T15:41:34.004Z,43.11
2023-03-20T15:44:15.906Z,43.58
2023-03-20T15:46:50.783Z,43.16
2023-03-20T15:49:18.507Z,42.82
2023-03-20T15:51:45.078Z,42.86
2023-03-20T15:54:13.977Z,42.73
2023-03-20T15:56:45.531Z,42.88
2023-03-20T15:59:14.589Z,43.07
2023-03-20T16:01:41.213Z,43.80
2023-03-20T16:04:09.953Z,44.96
2023-03-20T16:06:44.590Z,44.95
2023-03-20T16:09:14.054Z,45.13
2023-03-20T16:11:42.650Z,46.00
2023-03-20T16:14:14.707Z,46.38
2023-03-20T16:16:41.442Z,46.81
2023-03-20T16:19:08.360Z,47.58
2023-03-20T16:21:36.937Z,47.95
2023-03-20T16:24:06.977Z,48.17
2023-03-20T16:26:36.609Z,48.67
2023-03-20T16:29:03.648Z,50.19
2023-03-20T16:31:34.243Z,50.61
2023-03-20T16:34:02.667Z,50.45
2023-03-20T16:36:31.068Z,50.44
2023-03-20T16:38:59.085Z,50.63
2023-03-20T16:41:29.500Z,51.89
2023-03-20T16:43:56.962Z,51.63
2023-03-20T16:46:25.020Z,52.04
2023-03-20T16:48:52.463Z,52.85
2023-03-20T16:51:24.463Z,53.51
2023-03-20T16:53:53.992Z,54.21
2023-03-20T16:56:24.194Z,54.37
2023-03-20T16:58:50.835Z,54.43
2023-03-20T17:01:22.191Z,55.83
2023-03-20T17:03:48.714Z,55.37
2023-03-20T17:06:25.549Z,56.01
2023-03-20T17:08:53.706Z,56.55
2023-03-20T17:11:34.239Z,57.56
2023-03-20T17:14:01.230Z,57.93
2023-03-20T17:16:27.679Z,56.71
2023-03-20T17:19:01.730Z,56.29
2023-03-20T17:21:28.497Z,55.85
2023-03-20T17:23:55.058Z,55.85
2023-03-20T17:26:21.629Z,56.57
2023-03-20T17:28:48.116Z,57.19
2023-03-20T17:31:15.453Z,57.30
2023-03-20T17:33:41.935Z,56.62
2023-03-20T17:36:16.705Z,56.71
2023-03-20T17:38:43.146Z,57.02
2023-03-20T17:41:17.351Z,57.14
2023-03-20T17:43:44.435Z,56.89
2023-03-20T17:46:20.978Z,56.87
2023-03-20T17:48:48.360Z,55.94
2023-03-20T17:51:14.871Z,57.18
2023-03-20T17:53:41.383Z,57.72
2023-03-20T17:56:11.656Z,58.54
2023-03-20T17:58:39.312Z,58.74
2023-03-20T18:01:06.973Z,58.17
2023-03-20T18:03:33.510Z,55.53
2023-03-20T18:06:00.044Z,54.48
2023-03-20T18:08:26.644Z,55.27
2023-03-20T18:10:53.443Z,57.47
2023-03-20T18:13:21.195Z,57.51
2023-03-20T18:15:49.528Z,59.31
2023-03-20T18:18:16.205Z,58.86
2023-03-20T18:20:43.000Z,59.77
2023-03-20T18:23:09.972Z,60.01
2023-03-20T18:25:36.465Z,60.42
2023-03-20T18:28:04.753Z,60.22
2023-03-20T18:30:36.561Z,60.51
2023-03-20T18:33:03.975Z,60.70
2023-03-20T18:35:30.719Z,61.06
2023-03-20T18:37:57.328Z,61.69
2023-03-20T18:40:27.709Z,60.55
2023-03-20T18:42:54.873Z,61.29
2023-03-20T18:45:22.096Z,62.00
2023-03-20T18:47:49.190Z,61.97
2023-03-20T18:50:21.795Z,62.47
2023-03-20T18:52:48.358Z,63.23
2023-03-20T18:55:14.882Z,62.42
2023-03-20T18:57:43.160Z,62.15
2023-03-20T19:00:16.906Z,61.72
2023-03-20T19:02:43.339Z,62.01
2023-03-20T19:05:11.407Z,62.18
2023-03-20T19:07:37.858Z,63.18
2023-03-20T19:10:04.797Z,63.08
2023-03-20T19:12:31.585Z,63.36
2023-03-20T19:14:57.991Z,63.21
2023-03-20T19:17:24.473Z,62.01
2023-03-20T19:19:50.900Z,62.11
2023-03-20T19:22:28.968Z,62.35
2023-03-20T19:24:56.142Z,61.83
2023-03-20T19:27:22.595Z,60.92
2023-03-20T19:29:49.471Z,60.27
2023-03-20T19:32:15.897Z,60.88
2023-03-20T19:37:28.846Z,58.52
2023-03-20T19:39:55.307Z,60.47
2023-03-20T19:42:50.773Z,60.34
2023-03-20T19:45:08.670Z,59.55
2023-03-20T19:47:35.132Z,59.93
2023-03-20T19:50:01.749Z,60.67
2023-03-20T19:52:31.745Z,61.44
2023-03-20T19:55:02.982Z,62.62
2023-03-20T19:57:30.246Z,62.38
2023-03-20T20:00:32.253Z,62.73
2023-03-20T20:02:43.352Z,63.45
2023-03-20T20:05:22.140Z,63.28
2023-03-20T20:08:16.988Z,62.72
2023-03-20T20:10:40.192Z,63.64
2023-03-20T20:13:06.815Z,63.83
2023-03-20T20:15:34.750Z,63.71
2023-03-20T20:18:01.341Z,64.02
2023-03-20T20:20:29.896Z,64.54
2023-03-20T20:22:56.445Z,65.32
2023-03-20T20:25:23.058Z,65.27
2023-03-20T20:27:49.557Z,65.72
2023-03-20T20:30:17.403Z,65.88
2023-03-20T20:32:44.720Z,65.86
2023-03-20T20:38:33.567Z,66.05
2023-03-20T20:40:47.721Z,65.42
2023-03-20T20:43:39.079Z,65.69
2023-03-20T20:46:01.164Z,66.34
2023-03-20T20:48:27.657Z,66.91
2023-03-20T20:50:58.907Z,67.53
2023-03-20T20:53:25.975Z,67.46
2023-03-20T20:55:52.412Z,66.93
2023-03-20T20:58:18.848Z,66.27
2023-03-20T21:00:52.562Z,66.42
2023-03-20T21:03:21.286Z,66.36
2023-03-20T21:05:47.805Z,66.84
2023-03-20T21:08:15.189Z,66.85
2023-03-20T21:10:43.973Z,65.95
2023-03-20T21:13:10.557Z,66.19
2023-03-20T21:15:37.437Z,66.33
2023-03-20T21:18:04.195Z,66.76
2023-03-20T21:20:31.298Z,66.45
2023-03-20T21:22:58.250Z,67.17
2023-03-20T21:25:38.657Z,67.72
2023-03-20T21:28:06.680Z,67.75
2023-03-20T21:30:33.639Z,67.71
2023-03-20T21:33:00.289Z,67.85
2023-03-20T21:35:27.193Z,67.90
2023-03-20T21:40:40.248Z,68.26
2023-03-20T21:43:07.297Z,68.34
2023-03-20T22:02:22.513Z,69.95
2023-03-20T22:14:12.696Z,71.19
2023-03-20T22:27:49.301Z,71.24
2023-03-20T22:33:22.713Z,72.32
2023-03-20T22:41:57.112Z,72.32
2023-03-20T22:46:47.975Z,72.57
2023-03-20T22:49:14.737Z,73.24
2023-03-20T22:51:57.502Z,73.54
2023-03-20T22:54:27.625Z,73.68
2023-03-20T22:56:54.114Z,73.74
2023-03-20T22:59:20.569Z,75.12
2023-03-20T23:01:46.982Z,75.15
2023-03-20T23:04:13.655Z,70.55
2023-03-20T23:06:40.975Z,73.16
2023-03-20T23:09:15.296Z,74.86
2023-03-20T23:11:42.180Z,74.42
2023-03-20T23:14:18.210Z,74.32
2023-03-20T23:16:46.591Z,74.22
2023-03-20T23:19:13.164Z,74.52
2023-03-20T23:21:39.597Z,74.46
2023-03-20T23:24:06.204Z,75.42
2023-03-20T23:26:32.665Z,75.42
2023-03-20T23:28:59.353Z,76.06
2023-03-20T23:31:26.561Z,76.40
2023-03-20T23:33:54.829Z,76.59
2023-03-20T23:36:34.989Z,76.11
2023-03-20T23:39:02.692Z,76.56
2023-03-20T23:41:54.034Z,76.27
2023-03-20T23:44:15.787Z,76.52
2023-03-20T23:46:42.367Z,76.75
2023-03-20T23:49:08.865Z,76.79
2023-03-20T23:51:35.415Z,76.60
2023-03-20T23:54:01.893Z,76.99
2023-03-20T23:56:28.539Z,77.28
2023-03-20T23:59:01.168Z,76.59
